Time;durP1;ratioP1;P1;durP2;ratioP2;P2;SDS_P1;SDS_P2;PMS_P1;PMS_P2;Temp;Humidity;BMP_temperature;BMP_pressure;BME280_temperature;BME280_humidity;BME280_pressure;Samples;Min_cycle;Max_cycle;Signal;HPM_P1;HPM_P2
2022/11/05 00:17:20;;;;;;;;;;;6.40;99.90;;;;;;5006348;28;19926;-73
2022/11/05 00:19:52;;;;;;;;;;;6.40;99.90;;;;;;4989280;28;20374;-73
2022/11/05 00:25:18;;;;;;;;;;;6.50;99.90;;;;;;5007086;28;19926;-73
2022/11/05 00:27:46;;;;;;;;;;;6.50;99.90;;;;;;5007869;28;19937;-73
2022/11/05 00:30:15;;;;;;;;;;;6.50;99.90;;;;;;4990746;28;20407;-73
2022/11/05 00:32:42;;;;;;;;;;;6.50;99.90;;;;;;4972572;28;19926;-73
2022/11/05 00:35:15;;;;;;;;;;;6.60;99.90;;;;;;4972319;28;19930;-72
2022/11/05 00:37:46;;;;;;;;;;;6.60;99.90;;;;;;4988153;28;20149;-73
2022/11/05 00:40:18;;;;;;;;;;;6.60;99.90;;;;;;5007558;28;20003;-76
2022/11/05 00:45:45;;;;;;;;;;;6.60;99.90;;;;;;4936282;28;19962;-74
2022/11/05 00:51:08;;;;;;;;;;;6.60;99.90;;;;;;5008020;28;20292;-73
2022/11/05 00:53:39;;;;;;;;;;;6.60;99.90;;;;;;4988173;28;19979;-72
2022/11/05 00:56:11;;;;;;;;;;;6.60;99.90;;;;;;5008092;28;20334;-74
2022/11/05 00:58:43;;;;;;;;;;;6.60;99.90;;;;;;4989912;28;19975;-73
2022/11/05 01:01:09;;;;;;;;;;;6.70;99.90;;;;;;5006788;28;19972;-73
2022/11/05 01:03:37;;;;;;;;;;;6.70;99.90;;;;;;4985459;28;19930;-73
2022/11/05 01:06:10;;;;;;;;;;;6.70;99.90;;;;;;4974384;28;19956;-73
2022/11/05 01:08:43;;;;;;;;;;;6.70;99.90;;;;;;4991268;28;19976;-74
2022/11/05 01:11:31;;;;;;;;;;;6.70;99.90;;;;;;4990819;28;19926;-74
2022/11/05 01:14:06;;;;;;;;;;;6.70;99.90;;;;;;5007700;28;19936;-73
2022/11/05 01:16:38;;;;;;;;;;;6.70;99.90;;;;;;5008849;28;20684;-73
2022/11/05 01:19:11;;;;;;;;;;;6.70;99.90;;;;;;4988011;28;20370;-73
2022/11/05 01:21:42;;;;;;;;;;;6.70;99.90;;;;;;4990806;28;19984;-74
2022/11/05 01:24:09;;;;;;;;;;;6.70;99.90;;;;;;4975039;28;19925;-73
2022/11/05 01:26:42;;;;;;;;;;;6.80;99.90;;;;;;4974257;28;19950;-74
2022/11/05 01:29:13;;;;;;;;;;;6.80;99.90;;;;;;4987073;28;20016;-74
2022/11/05 01:31:45;;;;;;;;;;;6.80;99.90;;;;;;4985513;28;20015;-74
2022/11/05 01:34:11;;;;;;;;;;;6.80;99.90;;;;;;4988997;28;19977;-73
2022/11/05 01:36:43;;;;;;;;;;;6.90;99.90;;;;;;5006137;28;19971;-74
2022/11/05 01:39:15;;;;;;;;;;;6.90;99.90;;;;;;4975926;28;19952;-74
2022/11/05 01:41:46;;;;;;;;;;;6.90;99.90;;;;;;5007139;28;19984;-74
2022/11/05 01:44:36;;;;;;;;;;;7.00;99.90;;;;;;4975658;28;19945;-72
2022/11/05 01:47:16;;;;;;;;;;;7.00;99.90;;;;;;5006862;28;20019;-73
2022/11/05 01:49:48;;;;;;;;;;;7.00;99.90;;;;;;5007458;28;19930;-74
2022/11/05 01:52:20;;;;;;;;;;;7.00;99.90;;;;;;4989206;28;19979;-75
2022/11/05 01:54:52;;;;;;;;;;;7.10;99.90;;;;;;4987288;28;20540;-74
2022/11/05 01:57:24;;;;;;;;;;;7.10;99.90;;;;;;4992720;28;19925;-74
2022/11/05 01:59:54;;;;;;;;;;;7.10;99.90;;;;;;4987185;28;19925;-73
2022/11/05 02:02:25;;;;;;;;;;;7.10;99.90;;;;;;5006408;28;20418;-74
2022/11/05 02:04:57;;;;;;;;;;;7.10;99.90;;;;;;4990542;28;19925;-75
2022/11/05 02:07:29;;;;;;;;;;;7.20;99.90;;;;;;4972323;28;20336;-74
2022/11/05 02:09:59;;;;;;;;;;;7.20;99.90;;;;;;4989924;28;19929;-75
2022/11/05 02:12:32;;;;;;;;;;;7.20;99.90;;;;;;5006265;28;19949;-75
2022/11/05 02:15:03;;;;;;;;;;;7.20;99.90;;;;;;4987921;28;19975;-75
2022/11/05 02:17:41;;;;;;;;;;;7.20;99.90;;;;;;5005413;28;19925;-74
2022/11/05 02:20:31;;;;;;;;;;;7.20;99.90;;;;;;4990190;28;19988;-74
2022/11/05 02:23:22;;;;;;;;;;;7.20;99.90;;;;;;5004830;28;19987;-73
2022/11/05 02:26:05;;;;;;;;;;;7.10;99.90;;;;;;4973212;28;19926;-72
2022/11/05 02:28:40;;;;;;;;;;;7.20;99.90;;;;;;4989040;28;19936;-74
2022/11/05 02:31:27;;;;;;;;;;;7.10;99.90;;;;;;5006833;28;20539;-73
2022/11/05 02:33:56;;;;;;;;;;;7.10;99.90;;;;;;5005473;28;20442;-73
2022/11/05 02:36:42;;;;;;;;;;;7.10;99.90;;;;;;4989569;28;19971;-76
2022/11/05 02:39:16;;;;;;;;;;;7.10;99.90;;;;;;4989526;28;19980;-73
2022/11/05 02:41:59;;;;;;;;;;;7.10;99.90;;;;;;5005753;28;20059;-74
2022/11/05 02:44:41;;;;;;;;;;;7.10;99.90;;;;;;4988628;28;20304;-73
2022/11/05 02:47:22;;;;;;;;;;;7.10;99.90;;;;;;4987665;28;19949;-72
2022/11/05 02:50:05;;;;;;;;;;;7.10;99.90;;;;;;4989298;28;19983;-76
2022/11/05 02:52:37;;;;;;;;;;;7.10;99.90;;;;;;4972456;28;19925;-74
2022/11/05 02:55:17;;;;;;;;;;;7.10;99.90;;;;;;4989332;28;19930;-76
2022/11/05 02:57:49;;;;;;;;;;;7.10;99.90;;;;;;4986529;28;20343;-74
2022/11/05 03:00:39;;;;;;;;;;;7.10;99.90;;;;;;4971372;28;19981;-74
2022/11/05 03:03:20;;;;;;;;;;;7.20;99.90;;;;;;4988928;28;19925;-74
2022/11/05 03:05:59;;;;;;;;;;;7.20;99.90;;;;;;5004179;28;20785;-74
2022/11/05 03:08:40;;;;;;;;;;;7.10;99.90;;;;;;4970760;28;19925;-73
2022/11/05 03:11:17;;;;;;;;;;;7.10;99.90;;;;;;5003727;28;20392;-74
2022/11/05 03:13:51;;;;;;;;;;;7.10;99.90;;;;;;4989185;28;19926;-72
2022/11/05 03:16:21;;;;;;;;;;;7.10;99.90;;;;;;4986095;28;19933;-73
2022/11/05 03:18:57;;;;;;;;;;;7.10;99.90;;;;;;4985413;28;19925;-74
2022/11/05 03:21:35;;;;;;;;;;;7.10;99.90;;;;;;4988632;28;19926;-74
2022/11/05 03:24:09;;;;;;;;;;;7.10;99.90;;;;;;4987907;28;20039;-73
2022/11/05 03:27:02;;;;;;;;;;;7.20;99.90;;;;;;4989251;28;19934;-74
2022/11/05 03:29:40;;;;;;;;;;;7.20;99.90;;;;;;5002075;28;19933;-72
2022/11/05 03:32:13;;;;;;;;;;;7.10;99.90;;;;;;4993333;28;19932;-75
2022/11/05 03:34:46;;;;;;;;;;;7.10;99.90;;;;;;5009614;28;19937;-75
2022/11/05 03:37:19;;;;;;;;;;;7.10;99.90;;;;;;5003901;28;20352;-74
2022/11/05 03:39:53;;;;;;;;;;;7.10;99.90;;;;;;4990810;28;19926;-74
2022/11/05 03:42:34;;;;;;;;;;;7.10;99.90;;;;;;4990299;28;19930;-73
2022/11/05 03:45:10;;;;;;;;;;;7.20;99.90;;;;;;4977640;28;19929;-76
2022/11/05 03:47:42;;;;;;;;;;;7.20;99.90;;;;;;5009039;28;19980;-75
2022/11/05 03:50:20;;;;;;;;;;;7.10;99.90;;;;;;4972950;28;20156;-75
2022/11/05 03:52:54;;;;;;;;;;;7.10;99.90;;;;;;4989955;28;19929;-75
2022/11/05 03:55:29;;;;;;;;;;;7.20;99.90;;;;;;4976015;28;19925;-74
2022/11/05 03:57:57;;;;;;;;;;;7.20;99.90;;;;;;5009062;28;19933;-75
2022/11/05 04:00:28;;;;;;;;;;;7.20;99.90;;;;;;5006755;28;20515;-74
2022/11/05 04:03:00;;;;;;;;;;;7.20;99.90;;;;;;4993348;28;19992;-74
2022/11/05 04:05:26;;;;;;;;;;;7.20;99.90;;;;;;4992252;28;19964;-74
2022/11/05 04:13:34;;;;;;;;;;;7.10;99.90;;;;;;4992363;28;19964;-74
2022/11/05 04:18:50;;;;;;;;;;;7.10;99.90;;;;;;4992588;28;19929;-74
2022/11/05 04:24:23;;;;;;;;;;;7.10;99.90;;;;;;4939907;28;19933;-75
2022/11/05 04:26:54;;;;;;;;;;;7.10;99.90;;;;;;4985662;28;19925;-73
2022/11/05 04:32:16;;;;;;;;;;;7.10;99.90;;;;;;5008918;28;19983;-74
2022/11/05 04:34:48;;;;;;;;;;;7.10;99.90;;;;;;4976977;28;19983;-75
2022/11/05 04:37:14;;;;;;;;;;;7.20;99.90;;;;;;5008009;28;19929;-76
2022/11/05 04:39:46;;;;;;;;;;;7.20;99.90;;;;;;5009530;28;19945;-75
2022/11/05 04:42:17;;;;;;;;;;;7.20;99.90;;;;;;4971728;28;19932;-74
2022/11/05 04:44:49;;;;;;;;;;;7.20;99.90;;;;;;5009213;28;19929;-74
2022/11/05 04:47:20;;;;;;;;;;;7.20;99.90;;;;;;4987449;28;19929;-74
2022/11/05 04:49:52;;;;;;;;;;;7.20;99.90;;;;;;4977103;28;20466;-74
2022/11/05 04:52:23;;;;;;;;;;;7.20;99.90;;;;;;4993093;28;19990;-73
2022/11/05 04:54:55;;;;;;;;;;;7.20;99.90;;;;;;4992374;28;19930;-74
2022/11/05 04:57:27;;;;;;;;;;;7.20;99.90;;;;;;4991766;28;20037;-74
2022/11/05 04:59:58;;;;;;;;;;;7.20;99.90;;;;;;4975641;28;19979;-73
2022/11/05 05:02:30;;;;;;;;;;;7.20;99.90;;;;;;4991169;28;19979;-74
2022/11/05 05:05:02;;;;;;;;;;;7.20;99.90;;;;;;4992261;28;19976;-74
2022/11/05 05:07:33;;;;;;;;;;;7.30;99.90;;;;;;4988893;28;19943;-73
2022/11/05 05:10:01;;;;;;;;;;;7.30;99.90;;;;;;4990714;28;19968;-74
2022/11/05 05:12:32;;;;;;;;;;;7.30;99.90;;;;;;4991347;28;19957;-75
2022/11/05 05:15:04;;;;;;;;;;;7.30;99.90;;;;;;4990252;28;19925;-74
2022/11/05 05:17:36;;;;;;;;;;;7.30;99.90;;;;;;5008873;28;20399;-73
2022/11/05 05:23:03;;;;;;;;;;;7.30;99.90;;;;;;4939914;28;19926;-73
2022/11/05 05:25:35;;;;;;;;;;;7.30;99.90;;;;;;4988796;28;20388;-73
2022/11/05 05:28:07;;;;;;;;;;;7.30;99.90;;;;;;4990120;28;19925;-72
2022/11/05 05:30:33;;;;;;;;;;;7.30;99.90;;;;;;4979131;28;20439;-73
2022/11/05 05:33:05;;;;;;;;;;;7.20;99.90;;;;;;4992736;28;20388;-73
2022/11/05 05:35:36;;;;;;;;;;;7.20;99.90;;;;;;4991098;28;19956;-72
2022/11/05 05:38:08;;;;;;;;;;;7.20;99.90;;;;;;4973946;28;19976;-75
2022/11/05 05:40:39;;;;;;;;;;;7.20;99.90;;;;;;4991315;28;19934;-72
2022/11/05 05:43:11;;;;;;;;;;;7.20;99.90;;;;;;4990118;28;19929;-72
2022/11/05 05:45:43;;;;;;;;;;;7.30;99.90;;;;;;4990328;28;19987;-76
2022/11/05 05:48:09;;;;;;;;;;;7.30;99.90;;;;;;5008554;28;20542;-72
2022/11/05 05:50:41;;;;;;;;;;;7.30;99.90;;;;;;5008406;28;19932;-74
2022/11/05 05:53:07;;;;;;;;;;;7.20;99.90;;;;;;4991581;28;19984;-76
2022/11/05 05:55:34;;;;;;;;;;;7.20;99.90;;;;;;5005650;28;19925;-72
2022/11/05 05:58:05;;;;;;;;;;;7.20;99.90;;;;;;4987410;28;19933;-74
2022/11/05 06:00:37;;;;;;;;;;;7.20;99.90;;;;;;4987579;28;20706;-73
2022/11/05 06:03:09;;;;;;;;;;;7.20;99.90;;;;;;5009039;28;19929;-76
2022/11/05 06:05:35;;;;;;;;;;;7.20;99.90;;;;;;4989324;28;19926;-73
2022/11/05 06:08:07;;;;;;;;;;;7.20;99.90;;;;;;4975033;28;19933;-73
2022/11/05 06:10:39;;;;;;;;;;;7.20;99.90;;;;;;5008852;28;19941;-74
2022/11/05 06:13:10;;;;;;;;;;;7.20;99.90;;;;;;4990066;28;20646;-73
2022/11/05 06:15:42;;;;;;;;;;;7.10;99.90;;;;;;4989887;28;19929;-74
2022/11/05 06:18:13;;;;;;;;;;;7.20;99.90;;;;;;4986385;28;20016;-72
2022/11/05 06:20:40;;;;;;;;;;;7.20;99.90;;;;;;5003487;28;19992;-75
2022/11/05 06:23:12;;;;;;;;;;;7.20;99.90;;;;;;5004072;28;19925;-74
2022/11/05 06:25:43;;;;;;;;;;;7.20;99.90;;;;;;4988600;28;19926;-73
2022/11/05 06:28:15;;;;;;;;;;;7.20;99.90;;;;;;4988719;28;20355;-75
2022/11/05 06:30:50;;;;;;;;;;;7.20;99.90;;;;;;4987872;28;20018;-74
2022/11/05 06:33:17;;;;;;;;;;;7.20;99.90;;;;;;4989867;28;19933;-75
2022/11/05 06:35:43;;;;;;;;;;;7.20;99.90;;;;;;4989697;28;20055;-73
2022/11/05 06:38:10;;;;;;;;;;;7.20;99.90;;;;;;4989072;28;19937;-75
2022/11/05 06:40:37;;;;;;;;;;;7.20;99.90;;;;;;4989136;28;19933;-75
2022/11/05 06:43:08;;;;;;;;;;;7.20;99.90;;;;;;4989765;28;20281;-73
2022/11/05 06:45:35;;;;;;;;;;;7.20;99.90;;;;;;5004537;28;19930;-73
2022/11/05 06:48:01;;;;;;;;;;;7.30;99.90;;;;;;5004313;28;19980;-73
2022/11/05 06:50:33;;;;;;;;;;;7.30;99.90;;;;;;4987964;28;19929;-76
2022/11/05 06:53:01;;;;;;;;;;;7.30;99.90;;;;;;4989241;28;19935;-74
2022/11/05 06:55:28;;;;;;;;;;;7.30;99.90;;;;;;4988914;28;19979;-73
2022/11/05 06:57:55;;;;;;;;;;;7.30;99.90;;;;;;4971277;28;19926;-74
2022/11/05 07:00:27;;;;;;;;;;;7.30;99.90;;;;;;5006797;28;20419;-74
2022/11/05 07:03:02;;;;;;;;;;;7.30;99.90;;;;;;4974057;28;19933;-73
2022/11/05 07:05:36;;;;;;;;;;;7.30;99.90;;;;;;4987072;28;19929;-74
2022/11/05 07:08:07;;;;;;;;;;;7.30;99.90;;;;;;5005740;28;20288;-72
2022/11/05 07:10:39;;;;;;;;;;;7.40;99.90;;;;;;4973755;28;19936;-75
2022/11/05 07:13:10;;;;;;;;;;;7.40;99.90;;;;;;4989338;28;19937;-74
2022/11/05 07:15:42;;;;;;;;;;;7.40;99.90;;;;;;5004798;28;19926;-74
2022/11/05 07:18:13;;;;;;;;;;;7.40;99.90;;;;;;4969808;28;20391;-73
2022/11/05 07:20:45;;;;;;;;;;;7.40;99.90;;;;;;4987474;28;19930;-73
2022/11/05 07:23:17;;;;;;;;;;;7.40;99.90;;;;;;4988022;28;19932;-74
2022/11/05 07:25:48;;;;;;;;;;;7.40;99.90;;;;;;5006485;28;20557;-74
2022/11/05 07:28:15;;;;;;;;;;;7.40;99.90;;;;;;4976556;28;19991;-74
2022/11/05 07:30:47;;;;;;;;;;;7.40;99.90;;;;;;4971659;28;19930;-73
2022/11/05 07:33:18;;;;;;;;;;;7.30;99.90;;;;;;4974262;28;19975;-72
2022/11/05 07:35:45;;;;;;;;;;;7.40;99.90;;;;;;5000682;28;19937;-72
2022/11/05 07:38:18;;;;;;;;;;;7.40;99.90;;;;;;4971047;28;19961;-73
2022/11/05 07:40:49;;;;;;;;;;;7.40;99.90;;;;;;4990407;28;19930;-73
2022/11/05 07:43:16;;;;;;;;;;;7.40;99.90;;;;;;4972123;28;19930;-74
2022/11/05 07:45:44;;;;;;;;;;;7.50;99.90;;;;;;4991190;28;19933;-75
2022/11/05 07:48:15;;;;;;;;;;;7.50;99.90;;;;;;4988851;28;19933;-74
2022/11/05 07:50:42;;;;;;;;;;;7.50;99.90;;;;;;4988924;28;19925;-71
2022/11/05 07:53:13;;;;;;;;;;;7.50;99.90;;;;;;4972687;28;19926;-73
2022/11/05 07:55:40;;;;;;;;;;;7.50;99.90;;;;;;4988628;28;20342;-73
2022/11/05 07:58:13;;;;;;;;;;;7.50;99.90;;;;;;5007391;28;19972;-74
2022/11/05 08:00:44;;;;;;;;;;;7.50;99.90;;;;;;4990661;28;19941;-75
2022/11/05 08:03:16;;;;;;;;;;;7.50;99.90;;;;;;5006168;28;19980;-74
2022/11/05 08:05:45;;;;;;;;;;;7.60;99.90;;;;;;4988150;28;19988;-73
2022/11/05 08:08:17;;;;;;;;;;;7.60;99.90;;;;;;4988825;28;19933;-72
2022/11/05 08:10:49;;;;;;;;;;;7.60;99.90;;;;;;4974150;28;19933;-73
2022/11/05 08:13:21;;;;;;;;;;;7.60;99.90;;;;;;4988694;28;19961;-74
2022/11/05 08:15:54;;;;;;;;;;;7.60;99.90;;;;;;4971069;28;20315;-74
2022/11/05 08:18:21;;;;;;;;;;;7.60;99.90;;;;;;4975727;28;19980;-73
2022/11/05 08:20:52;;;;;;;;;;;7.70;99.90;;;;;;4993143;28;19979;-74
2022/11/05 08:23:19;;;;;;;;;;;7.70;99.90;;;;;;4993511;28;19926;-74
2022/11/05 08:25:45;;;;;;;;;;;7.60;99.90;;;;;;5009533;28;19973;-74
2022/11/05 08:28:18;;;;;;;;;;;7.60;99.90;;;;;;4993420;28;19937;-75
2022/11/05 08:30:49;;;;;;;;;;;7.60;99.90;;;;;;4987380;28;20430;-73
2022/11/05 08:33:21;;;;;;;;;;;7.70;99.90;;;;;;4994278;28;19937;-73
2022/11/05 08:35:53;;;;;;;;;;;7.70;99.90;;;;;;4973844;28;19929;-72
2022/11/05 08:38:19;;;;;;;;;;;7.80;99.90;;;;;;5008834;28;19925;-74
2022/11/05 08:40:55;;;;;;;;;;;7.80;99.90;;;;;;4993107;28;19976;-73
2022/11/05 08:43:22;;;;;;;;;;;7.90;99.90;;;;;;4973273;28;19925;-74
2022/11/05 08:45:54;;;;;;;;;;;8.00;99.90;;;;;;5010487;28;19941;-74
2022/11/05 08:48:25;;;;;;;;;;;8.00;99.90;;;;;;4971604;28;19979;-75
2022/11/05 08:50:58;;;;;;;;;;;8.10;99.90;;;;;;4968877;28;20281;-74
2022/11/05 08:53:25;;;;;;;;;;;8.10;99.90;;;;;;4988889;28;19988;-74
2022/11/05 08:55:57;;;;;;;;;;;8.10;99.90;;;;;;4990071;28;19936;-74
2022/11/05 08:58:28;;;;;;;;;;;8.10;99.90;;;;;;5007619;28;19980;-74
2022/11/05 09:00:55;;;;;;;;;;;8.10;99.90;;;;;;4989092;28;19929;-74
2022/11/05 09:03:26;;;;;;;;;;;8.00;99.90;;;;;;4991258;28;19983;-74
2022/11/05 09:05:53;;;;;;;;;;;8.10;99.90;;;;;;4990865;28;19933;-74
2022/11/05 09:08:25;;;;;;;;;;;8.10;99.90;;;;;;4973366;28;19929;-74
2022/11/05 09:10:51;;;;;;;;;;;8.10;99.90;;;;;;4987933;28;19937;-75
2022/11/05 09:13:23;;;;;;;;;;;8.00;99.90;;;;;;4974087;28;20376;-76
2022/11/05 09:15:50;;;;;;;;;;;8.00;99.90;;;;;;5005523;28;19926;-74
2022/11/05 09:18:22;;;;;;;;;;;8.10;99.90;;;;;;4990627;28;19940;-73
2022/11/05 09:20:53;;;;;;;;;;;8.00;99.90;;;;;;4990463;28;19925;-74
2022/11/05 09:23:25;;;;;;;;;;;8.00;99.90;;;;;;4991416;28;19926;-74
2022/11/05 09:25:57;;;;;;;;;;;8.00;99.90;;;;;;4990679;28;19980;-74
2022/11/05 09:28:24;;;;;;;;;;;8.00;99.90;;;;;;4987338;28;19999;-73
2022/11/05 09:30:56;;;;;;;;;;;8.10;99.90;;;;;;4989466;28;19925;-72
2022/11/05 09:33:27;;;;;;;;;;;8.10;99.90;;;;;;4990362;28;19929;-73
2022/11/05 09:35:59;;;;;;;;;;;8.10;99.90;;;;;;4988600;28;19968;-74
2022/11/05 09:38:25;;;;;;;;;;;8.10;99.90;;;;;;4975731;28;19930;-74
2022/11/05 09:40:59;;;;;;;;;;;8.10;99.90;;;;;;4992052;28;19925;-73
2022/11/05 09:43:33;;;;;;;;;;;8.20;99.90;;;;;;4992803;28;19926;-74
2022/11/05 09:46:07;;;;;;;;;;;8.20;99.90;;;;;;4992230;28;19933;-73
2022/11/05 09:48:34;;;;;;;;;;;8.10;99.90;;;;;;4991000;28;19980;-73
2022/11/05 09:51:03;;;;;;;;;;;8.10;99.90;;;;;;4991592;28;20222;-73
2022/11/05 09:53:36;;;;;;;;;;;8.10;99.90;;;;;;4975790;28;19930;-73
2022/11/05 09:56:14;;;;;;;;;;;8.10;99.90;;;;;;4976524;28;19937;-74
2022/11/05 09:58:54;;;;;;;;;;;8.20;99.90;;;;;;4990780;28;19930;-74
2022/11/05 10:01:35;;;;;;;;;;;8.30;99.90;;;;;;4992843;28;20378;-74
2022/11/05 10:04:08;;;;;;;;;;;8.30;99.90;;;;;;5008582;28;19929;-75
2022/11/05 10:06:55;;;;;;;;;;;8.40;99.90;;;;;;4974657;28;19980;-74
2022/11/05 10:09:34;;;;;;;;;;;8.50;99.90;;;;;;5008520;28;19925;-74
2022/11/05 10:12:11;;;;;;;;;;;8.50;99.90;;;;;;4989683;28;19995;-74
2022/11/05 10:14:47;;;;;;;;;;;8.60;99.90;;;;;;4967890;28;19930;-74
2022/11/05 10:17:26;;;;;;;;;;;8.50;99.90;;;;;;4991009;28;19972;-75
2022/11/05 10:20:00;;;;;;;;;;;8.60;99.90;;;;;;5006463;28;20335;-74
2022/11/05 10:22:32;;;;;;;;;;;8.60;99.90;;;;;;4991865;28;19925;-74
2022/11/05 10:25:14;;;;;;;;;;;8.60;99.90;;;;;;4984621;28;19937;-73
2022/11/05 10:27:42;;;;;;;;;;;8.60;99.90;;;;;;4989786;28;19948;-76
2022/11/05 10:30:13;;;;;;;;;;;8.60;99.90;;;;;;4989207;28;19926;-73
2022/11/05 10:32:45;;;;;;;;;;;8.70;99.90;;;;;;5009668;28;19988;-74
2022/11/05 10:35:21;;;;;;;;;;;8.80;99.90;;;;;;4991284;28;19932;-72
2022/11/05 10:37:52;;;;;;;;;;;8.90;99.90;;;;;;4975248;28;19933;-73
2022/11/05 10:40:41;;;;;;;;;;;9.00;99.90;;;;;;4992300;28;19933;-73
2022/11/05 10:43:22;;;;;;;;;;;9.10;99.90;;;;;;5008675;28;20288;-73
2022/11/05 10:46:18;;;;;;;;;;;9.10;99.90;;;;;;4991685;28;19980;-73
2022/11/05 10:48:49;;;;;;;;;;;9.10;99.90;;;;;;5004555;28;19926;-73
2022/11/05 10:51:21;;;;;;;;;;;9.10;99.90;;;;;;4990272;28;19929;-74
2022/11/05 10:53:55;;;;;;;;;;;9.00;99.90;;;;;;4992354;28;20293;-73
2022/11/05 10:56:27;;;;;;;;;;;9.00;99.90;;;;;;4990193;28;19975;-74
2022/11/05 10:59:00;;;;;;;;;;;9.00;99.90;;;;;;4991206;28;19936;-74
2022/11/05 11:01:27;;;;;;;;;;;8.90;99.90;;;;;;4990975;28;19988;-73
2022/11/05 11:04:15;;;;;;;;;;;8.80;99.90;;;;;;5009510;28;19925;-74
2022/11/05 11:06:49;;;;;;;;;;;8.80;99.90;;;;;;4987963;28;19933;-72
2022/11/05 11:09:23;;;;;;;;;;;8.80;99.90;;;;;;4990228;28;19992;-72
2022/11/05 11:11:58;;;;;;;;;;;8.80;99.90;;;;;;4989254;28;19929;-73
2022/11/05 11:14:25;;;;;;;;;;;8.90;99.90;;;;;;4976190;28;19930;-74
2022/11/05 11:17:14;;;;;;;;;;;8.90;99.90;;;;;;5000308;28;19949;-73
2022/11/05 11:19:46;;;;;;;;;;;9.00;99.90;;;;;;4977121;28;19980;-74
2022/11/05 11:22:19;;;;;;;;;;;9.00;99.90;;;;;;4978114;28;19929;-73
2022/11/05 11:24:46;;;;;;;;;;;9.10;99.90;;;;;;5011057;28;19956;-73
2022/11/05 11:27:19;;;;;;;;;;;9.10;99.90;;;;;;4995615;28;19976;-73
2022/11/05 11:29:58;;;;;;;;;;;9.10;99.90;;;;;;4976197;28;19937;-72
2022/11/05 11:32:26;;;;;;;;;;;9.10;99.90;;;;;;4974726;28;19975;-72
2022/11/05 11:34:53;;;;;;;;;;;9.10;99.90;;;;;;4994591;28;19926;-73
2022/11/05 11:37:24;;;;;;;;;;;9.10;99.90;;;;;;5001814;28;19930;-72
2022/11/05 11:39:53;;;;;;;;;;;9.10;99.90;;;;;;5012408;28;19975;-71
2022/11/05 11:42:28;;;;;;;;;;;9.20;99.90;;;;;;5011527;28;20443;-75
2022/11/05 11:45:04;;;;;;;;;;;9.20;99.90;;;;;;4993833;28;19956;-72
2022/11/05 11:47:41;;;;;;;;;;;9.20;99.90;;;;;;4989477;28;19933;-72
2022/11/05 11:50:33;;;;;;;;;;;9.20;99.90;;;;;;5011247;28;19948;-72
2022/11/05 11:53:15;;;;;;;;;;;9.20;99.90;;;;;;4992349;28;19949;-72
2022/11/05 11:55:54;;;;;;;;;;;9.20;99.90;;;;;;4981780;28;19937;-74
2022/11/05 11:58:39;;;;;;;;;;;9.20;99.90;;;;;;4973454;28;19926;-74
2022/11/05 12:01:30;;;;;;;;;;;9.10;99.90;;;;;;4988318;28;20303;-73
2022/11/05 12:04:08;;;;;;;;;;;9.10;99.90;;;;;;4991746;28;20463;-74
2022/11/05 12:06:44;;;;;;;;;;;9.10;99.90;;;;;;5008576;28;19929;-73
2022/11/05 12:09:18;;;;;;;;;;;9.10;99.90;;;;;;5011600;28;19980;-74
2022/11/05 12:11:57;;;;;;;;;;;9.20;99.90;;;;;;5009349;28;19925;-72
2022/11/05 12:14:40;;;;;;;;;;;9.10;99.90;;;;;;4991992;28;19929;-72
2022/11/05 12:17:15;;;;;;;;;;;9.10;99.90;;;;;;5011702;28;20579;-73
2022/11/05 12:20:00;;;;;;;;;;;9.00;99.90;;;;;;4994309;28;19929;-73
2022/11/05 12:22:46;;;;;;;;;;;9.00;99.90;;;;;;4993292;28;19972;-72
2022/11/05 12:25:21;;;;;;;;;;;9.00;99.90;;;;;;4986807;28;20380;-72
2022/11/05 12:28:19;;;;;;;;;;;9.00;99.90;;;;;;5009681;28;19929;-72
2022/11/05 12:30:58;;;;;;;;;;;9.10;99.90;;;;;;5007502;28;19973;-72
2022/11/05 12:33:25;;;;;;;;;;;9.10;99.90;;;;;;4978196;28;21641;-72
2022/11/05 12:36:02;;;;;;;;;;;9.10;99.90;;;;;;4994338;28;19933;-74
2022/11/05 12:38:49;;;;;;;;;;;9.10;99.90;;;;;;5008271;28;19972;-73
2022/11/05 12:41:21;;;;;;;;;;;9.20;99.90;;;;;;4995361;28;19925;-74
2022/11/05 12:43:58;;;;;;;;;;;9.20;99.90;;;;;;4978686;28;19931;-73
2022/11/05 12:46:48;;;;;;;;;;;9.10;99.90;;;;;;4994078;28;19983;-74
2022/11/05 12:49:21;;;;;;;;;;;9.10;99.90;;;;;;4974322;28;19930;-74
2022/11/05 12:52:05;;;;;;;;;;;9.10;99.90;;;;;;5010814;28;19949;-75
2022/11/05 12:54:39;;;;;;;;;;;9.20;99.90;;;;;;5011575;28;19926;-72
2022/11/05 12:57:12;;;;;;;;;;;9.20;99.90;;;;;;4991054;28;19930;-73
2022/11/05 12:59:53;;;;;;;;;;;9.20;99.90;;;;;;5010450;28;19925;-74
2022/11/05 13:02:28;;;;;;;;;;;9.30;99.90;;;;;;5011350;28;21251;-74
2022/11/05 13:05:17;;;;;;;;;;;9.40;99.90;;;;;;4976497;28;20459;-72
2022/11/05 13:07:48;;;;;;;;;;;9.50;99.90;;;;;;4973600;28;19934;-73
2022/11/05 13:10:25;;;;;;;;;;;9.50;99.90;;;;;;4991995;28;19980;-73
2022/11/05 13:13:15;;;;;;;;;;;9.50;99.90;;;;;;4978392;28;19933;-72
2022/11/05 13:16:05;;;;;;;;;;;9.50;99.90;;;;;;4994788;28;19979;-74
2022/11/05 13:18:52;;;;;;;;;;;9.50;99.90;;;;;;4978428;28;19930;-72
2022/11/05 13:21:22;;;;;;;;;;;9.50;99.90;;;;;;5000699;28;19926;-72
2022/11/05 13:24:08;;;;;;;;;;;9.50;99.90;;;;;;4993753;28;19929;-71
2022/11/05 13:26:49;;;;;;;;;;;9.60;99.90;;;;;;5009217;28;19932;-75
2022/11/05 13:29:24;;;;;;;;;;;9.60;99.90;;;;;;4994703;28;19948;-73
2022/11/05 13:32:00;;;;;;;;;;;9.50;99.90;;;;;;4993851;28;19926;-75
2022/11/05 13:34:32;;;;;;;;;;;9.50;99.90;;;;;;4992028;28;20487;-72
2022/11/05 13:39:56;;;;;;;;;;;9.30;99.90;;;;;;4992269;28;20415;-74
2022/11/05 13:42:28;;;;;;;;;;;9.00;99.90;;;;;;4994982;28;19973;-73
2022/11/05 13:45:06;;;;;;;;;;;8.80;99.90;;;;;;4975584;28;19926;-75
2022/11/05 13:47:41;;;;;;;;;;;8.70;99.90;;;;;;4992432;28;20496;-72
2022/11/05 13:50:25;;;;;;;;;;;8.60;99.90;;;;;;4993958;28;19983;-74
2022/11/05 13:52:56;;;;;;;;;;;8.50;99.90;;;;;;5010145;28;19925;-75
2022/11/05 13:55:23;;;;;;;;;;;8.40;99.90;;;;;;4991848;28;19933;-74
2022/11/05 13:58:04;;;;;;;;;;;8.40;99.90;;;;;;4984988;28;19976;-74
2022/11/05 14:00:40;;;;;;;;;;;8.40;99.90;;;;;;4975399;28;19925;-74
2022/11/05 14:03:16;;;;;;;;;;;8.40;99.90;;;;;;5010405;28;19926;-74
2022/11/05 14:05:52;;;;;;;;;;;8.50;99.90;;;;;;4993070;28;19999;-73
2022/11/05 14:08:26;;;;;;;;;;;8.50;99.90;;;;;;4986353;28;19961;-73
2022/11/05 14:11:00;;;;;;;;;;;8.50;99.90;;;;;;5004928;28;19976;-72
2022/11/05 14:13:35;;;;;;;;;;;8.60;99.90;;;;;;5006657;28;19933;-74
2022/11/05 14:16:08;;;;;;;;;;;8.60;99.90;;;;;;5006773;28;19925;-73
2022/11/05 14:18:46;;;;;;;;;;;8.70;99.90;;;;;;5007000;28;19925;-74
2022/11/05 14:21:26;;;;;;;;;;;8.70;99.90;;;;;;5004948;28;19925;-75
2022/11/05 14:24:16;;;;;;;;;;;8.80;99.90;;;;;;4991343;28;19926;-75
2022/11/05 14:26:43;;;;;;;;;;;8.80;99.90;;;;;;5007518;28;19961;-74
2022/11/05 14:30:12;;;;;;;;;;;;;;;;;;;;;
2022/11/05 14:32:26;;;;;;;;;;;8.80;99.90;;;;;;4978866;28;19953;-74
2022/11/05 14:35:10;;;;;;;;;;;8.90;99.90;;;;;;4988346;28;19929;-75
2022/11/05 14:37:50;;;;;;;;;;;9.00;99.90;;;;;;5007353;28;19999;-74
2022/11/05 14:40:22;;;;;;;;;;;9.00;99.90;;;;;;4984283;28;20392;-73
2022/11/05 14:42:50;;;;;;;;;;;9.10;99.90;;;;;;4988192;28;19992;-74
2022/11/05 14:45:25;;;;;;;;;;;9.10;99.90;;;;;;4988978;28;20415;-74
2022/11/05 14:47:58;;;;;;;;;;;9.20;99.90;;;;;;5006969;28;19929;-74
2022/11/05 14:50:30;;;;;;;;;;;9.10;99.90;;;;;;4974795;28;19979;-72
2022/11/05 14:53:22;;;;;;;;;;;9.10;99.90;;;;;;4989498;28;19925;-72
2022/11/05 14:55:59;;;;;;;;;;;9.10;99.90;;;;;;4975494;28;19925;-73
2022/11/05 14:58:35;;;;;;;;;;;9.10;99.90;;;;;;4974590;28;19933;-72
2022/11/05 15:01:12;;;;;;;;;;;9.10;99.90;;;;;;5007146;28;20372;-73
2022/11/05 15:03:39;;;;;;;;;;;9.10;99.90;;;;;;5008859;28;19929;-75
2022/11/05 15:06:26;;;;;;;;;;;9.00;99.90;;;;;;4984746;28;19925;-73
2022/11/05 15:09:04;;;;;;;;;;;9.00;99.90;;;;;;4993573;28;19960;-73
2022/11/05 15:11:37;;;;;;;;;;;8.90;99.90;;;;;;5008138;28;19964;-72
2022/11/05 15:14:18;;;;;;;;;;;8.90;99.90;;;;;;4973144;28;19926;-74
2022/11/05 15:16:52;;;;;;;;;;;8.80;99.90;;;;;;4990144;28;20400;-74
2022/11/05 15:19:27;;;;;;;;;;;8.70;99.90;;;;;;5001638;28;19926;-73
2022/11/05 15:22:02;;;;;;;;;;;8.70;99.90;;;;;;4984673;28;19930;-73
2022/11/05 15:24:33;;;;;;;;;;;8.60;99.90;;;;;;5006506;28;19933;-74
2022/11/05 15:27:08;;;;;;;;;;;8.50;99.90;;;;;;4993256;28;19956;-72
2022/11/05 15:29:39;;;;;;;;;;;8.50;99.90;;;;;;5009321;28;19983;-71
2022/11/05 15:32:18;;;;;;;;;;;8.60;99.90;;;;;;5004981;28;19937;-74
2022/11/05 15:34:54;;;;;;;;;;;8.70;99.90;;;;;;4993733;28;19929;-74
2022/11/05 15:37:26;;;;;;;;;;;8.80;99.90;;;;;;4988689;28;20508;-76
2022/11/05 15:39:53;;;;;;;;;;;8.70;99.90;;;;;;4994808;28;19984;-74
2022/11/05 15:42:21;;;;;;;;;;;8.70;99.90;;;;;;4992960;28;19925;-75
2022/11/05 15:44:54;;;;;;;;;;;8.60;99.90;;;;;;4992909;28;19975;-74
2022/11/05 15:47:28;;;;;;;;;;;8.50;99.90;;;;;;4990729;28;19933;-73
2022/11/05 15:50:00;;;;;;;;;;;8.40;99.90;;;;;;4993617;28;19980;-75
2022/11/05 15:52:35;;;;;;;;;;;8.40;99.90;;;;;;4974372;28;19926;-76
2022/11/05 15:55:06;;;;;;;;;;;8.40;99.90;;;;;;5007668;28;19929;-73